createdAt,value
2018-07-17T00:01:41.776Z,4.63
2018-07-17T00:03:44.164Z,4.63
2018-07-17T00:05:46.491Z,5.60
2018-07-17T00:07:48.754Z,4.80
2018-07-17T00:09:51.720Z,4.53
2018-07-17T00:11:53.956Z,4.97
2018-07-17T00:13:56.263Z,6.83
2018-07-17T00:15:58.517Z,5.40
2018-07-17T00:18:00.816Z,6.57
2018-07-17T00:20:03.074Z,4.67
2018-07-17T00:22:05.426Z,5.37
2018-07-17T00:24:07.636Z,6.73
2018-07-17T00:26:09.858Z,5.57
2018-07-17T00:28:12.150Z,6.63
2018-07-17T00:30:14.398Z,5.37
2018-07-17T00:32:16.805Z,6.77
2018-07-17T00:34:19.072Z,5.10
2018-07-17T00:36:21.302Z,5.47
2018-07-17T00:38:23.549Z,6.80
2018-07-17T00:40:25.826Z,5.80
2018-07-17T00:42:28.601Z,4.90
2018-07-17T00:44:31.444Z,5.77
2018-07-17T00:46:33.748Z,8.10
2018-07-17T00:48:35.978Z,6.23
2018-07-17T00:50:38.217Z,5.00
2018-07-17T00:52:40.425Z,5.93
2018-07-17T00:54:42.714Z,7.23
2018-07-17T00:56:44.935Z,5.33
2018-07-17T00:58:47.205Z,5.53
2018-07-17T01:00:49.498Z,6.97
2018-07-17T01:02:57.230Z,7.63
2018-07-17T01:05:04.857Z,5.17
2018-07-17T01:07:13.026Z,5.23
2018-07-17T01:09:20.803Z,5.60
2018-07-17T01:11:28.415Z,5.17
2018-07-17T01:13:36.067Z,6.47
2018-07-17T01:15:39.270Z,6.67
2018-07-17T01:17:41.565Z,8.27
2018-07-17T01:19:43.802Z,6.43
2018-07-17T01:21:46.025Z,4.73
2018-07-17T01:23:48.330Z,4.97
2018-07-17T01:25:50.626Z,7.47
2018-07-17T01:27:52.850Z,7.13
2018-07-17T01:29:55.099Z,6.10
2018-07-17T01:31:57.422Z,6.40
2018-07-17T01:33:59.731Z,7.30
2018-07-17T01:36:02.029Z,6.80
2018-07-17T01:38:04.329Z,5.27
2018-07-17T01:40:06.598Z,5.13
2018-07-17T01:42:08.976Z,5.70
2018-07-17T01:44:14.979Z,5.17
2018-07-17T01:46:17.223Z,5.80
2018-07-17T01:48:19.506Z,4.50
2018-07-17T01:50:21.770Z,5.20
2018-07-17T01:52:24.073Z,4.80
2018-07-17T01:54:26.337Z,7.17
2018-07-17T01:56:28.675Z,8.13
2018-07-17T01:58:30.941Z,4.90
2018-07-17T02:00:33.191Z,6.63
2018-07-17T02:02:35.618Z,5.57
2018-07-17T02:04:37.946Z,4.57
2018-07-17T02:06:40.252Z,6.37
2018-07-17T02:08:42.493Z,5.63
2018-07-17T02:10:44.759Z,4.83
2018-07-17T02:12:47.170Z,4.43
2018-07-17T02:14:49.412Z,5.13
2018-07-17T02:16:51.659Z,8.23
2018-07-17T02:18:53.943Z,4.83
2018-07-17T02:20:56.114Z,5.97
2018-07-17T02:22:58.793Z,5.90
2018-07-17T02:25:01.031Z,5.67
2018-07-17T02:27:03.254Z,4.40
2018-07-17T02:29:05.504Z,4.20
2018-07-17T02:31:07.976Z,4.73
2018-07-17T02:33:10.204Z,4.80
2018-07-17T02:35:12.442Z,5.27
2018-07-17T02:37:14.676Z,4.90
2018-07-17T02:39:16.894Z,4.70
2018-07-17T02:41:19.128Z,4.60
2018-07-17T02:43:21.367Z,4.73
2018-07-17T02:45:23.556Z,4.60
2018-07-17T02:47:25.920Z,4.83
2018-07-17T02:49:28.165Z,7.47
2018-07-17T02:51:30.449Z,4.87
2018-07-17T02:53:32.707Z,4.77
2018-07-17T02:55:34.977Z,7.60
2018-07-17T02:57:37.257Z,5.60
2018-07-17T02:59:39.470Z,4.70
2018-07-17T03:01:41.675Z,5.33
2018-07-17T03:03:44.496Z,5.17
2018-07-17T03:05:46.762Z,4.53
2018-07-17T03:07:48.971Z,4.70
2018-07-17T03:09:51.162Z,4.60
2018-07-17T03:11:53.522Z,4.70
2018-07-17T03:13:55.748Z,5.03
2018-07-17T03:15:57.981Z,4.80
2018-07-17T03:18:00.235Z,4.27
2018-07-17T03:20:02.538Z,4.43
2018-07-17T03:22:04.740Z,5.83
2018-07-17T03:24:07.116Z,4.97
2018-07-17T03:26:09.376Z,5.87
2018-07-17T03:28:11.617Z,6.90
2018-07-17T03:30:13.897Z,5.73
2018-07-17T03:32:16.126Z,6.93
2018-07-17T03:34:18.399Z,5.30
2018-07-17T03:36:20.771Z,4.63
2018-07-17T03:38:22.933Z,5.00
2018-07-17T03:40:25.128Z,5.20
2018-07-17T03:42:27.421Z,5.37
2018-07-17T03:44:29.659Z,7.87
2018-07-17T03:46:32.099Z,7.77
2018-07-17T03:48:34.396Z,4.77
2018-07-17T03:50:36.606Z,4.73
2018-07-17T03:52:38.931Z,4.37
2018-07-17T03:54:41.209Z,6.50
2018-07-17T03:56:43.445Z,4.90
2018-07-17T03:58:45.624Z,4.73
2018-07-17T04:00:47.888Z,4.47
2018-07-17T04:02:50.365Z,4.80
2018-07-17T04:04:52.649Z,6.40
2018-07-17T04:06:54.911Z,6.23
2018-07-17T04:08:57.935Z,7.20
2018-07-17T04:11:00.274Z,5.40
2018-07-17T04:13:02.513Z,4.50
2018-07-17T04:15:04.841Z,5.40
2018-07-17T04:17:07.751Z,6.53
2018-07-17T04:19:09.992Z,5.63
2018-07-17T04:21:12.411Z,5.13
2018-07-17T04:23:16.588Z,5.97
2018-07-17T04:25:19.035Z,5.73
2018-07-17T04:27:21.303Z,6.97
2018-07-17T04:29:23.585Z,5.07
2018-07-17T04:31:25.878Z,7.43
2018-07-17T04:33:28.143Z,4.67
2018-07-17T04:35:30.407Z,6.80
2018-07-17T04:37:32.655Z,6.60
2018-07-17T04:39:35.852Z,6.20
2018-07-17T04:41:38.641Z,5.40
2018-07-17T04:43:40.833Z,8.97
2018-07-17T04:45:44.056Z,6.63
2018-07-17T04:47:46.275Z,5.37
2018-07-17T04:49:49.080Z,6.30
2018-07-17T04:51:51.343Z,8.30
2018-07-17T04:53:53.777Z,7.50
2018-07-17T04:55:56.138Z,5.20
2018-07-17T04:57:58.380Z,7.87
2018-07-17T05:00:00.677Z,10.40
2018-07-17T05:02:02.893Z,6.83
2018-07-17T05:04:05.277Z,6.50
2018-07-17T05:06:07.535Z,8.17
2018-07-17T05:08:10.221Z,7.80
2018-07-17T05:10:12.507Z,6.63
2018-07-17T05:12:14.838Z,9.17
2018-07-17T05:14:17.557Z,10.80
2018-07-17T05:16:19.874Z,6.87
2018-07-17T05:18:22.121Z,8.57
2018-07-17T05:20:24.302Z,9.30
2018-07-17T05:22:26.587Z,8.07
2018-07-17T05:24:28.956Z,10.27
2018-07-17T05:26:31.259Z,6.73
2018-07-17T05:28:34.291Z,8.03
2018-07-17T05:30:36.611Z,5.47
2018-07-17T05:32:38.934Z,10.53
2018-07-17T05:34:41.287Z,6.50
2018-07-17T05:36:43.974Z,5.27
2018-07-17T05:38:46.357Z,5.40
2018-07-17T05:40:48.612Z,6.00
2018-07-17T05:42:50.824Z,5.20
2018-07-17T05:44:53.247Z,6.00
2018-07-17T05:46:55.510Z,7.60
2018-07-17T05:48:58.041Z,6.47
2018-07-17T05:51:00.339Z,10.80
2018-07-17T05:53:02.665Z,5.23
2018-07-17T05:55:05.098Z,4.80
2018-07-17T05:57:07.460Z,6.83
2018-07-17T05:59:09.788Z,6.03
2018-07-17T06:01:12.179Z,6.03
2018-07-17T06:03:14.489Z,7.00
2018-07-17T06:05:16.804Z,5.83
2018-07-17T06:07:19.068Z,6.07
2018-07-17T06:09:21.332Z,6.33
2018-07-17T06:11:23.601Z,7.40
2018-07-17T06:13:25.874Z,6.23
2018-07-17T06:15:28.198Z,4.80
2018-07-17T06:17:30.566Z,5.63
2018-07-17T06:19:32.824Z,5.60
2018-07-17T06:21:35.119Z,6.57
2018-07-17T06:23:37.537Z,8.00
2018-07-17T06:25:39.930Z,5.63
2018-07-17T06:27:42.313Z,6.73
2018-07-17T06:29:44.580Z,5.83
2018-07-17T06:31:46.922Z,7.57
2018-07-17T06:33:49.404Z,5.90
2018-07-17T06:35:51.713Z,6.60
2018-07-17T06:37:54.028Z,4.63
2018-07-17T06:39:56.418Z,5.10
2018-07-17T06:41:58.747Z,5.07
2018-07-17T06:44:01.039Z,6.30
2018-07-17T06:46:03.414Z,5.40
2018-07-17T06:48:06.401Z,4.60
2018-07-17T06:50:08.852Z,8.20
2018-07-17T06:52:11.573Z,6.07
2018-07-17T06:54:13.982Z,7.77
2018-07-17T06:56:16.236Z,4.67
2018-07-17T06:58:18.546Z,7.87
2018-07-17T07:00:20.925Z,4.60
2018-07-17T07:02:23.173Z,5.73
2018-07-17T07:04:25.434Z,4.57
2018-07-17T07:06:27.793Z,4.50
2018-07-17T07:08:30.099Z,4.90
2018-07-17T07:10:32.446Z,7.67
2018-07-17T07:12:35.322Z,4.77
2018-07-17T07:14:37.756Z,5.13
2018-07-17T07:16:40.008Z,5.70
2018-07-17T07:18:42.339Z,4.47
2018-07-17T07:20:44.727Z,6.03
2018-07-17T07:22:47.213Z,4.20
2018-07-17T07:24:49.588Z,4.60
2018-07-17T07:26:51.938Z,4.50
2018-07-17T07:28:54.338Z,5.73
2018-07-17T07:30:58.250Z,4.60
2018-07-17T07:33:00.577Z,4.90
2018-07-17T07:35:02.858Z,4.13
2018-07-17T07:37:05.536Z,4.57
2018-07-17T07:39:09.069Z,6.20
2018-07-17T07:41:11.385Z,8.03
2018-07-17T07:43:20.058Z,6.87
2018-07-17T07:45:22.375Z,3.80
2018-07-17T07:47:25.206Z,4.37
2018-07-17T07:49:29.123Z,4.27
2018-07-17T07:51:32.408Z,3.80
2018-07-17T07:53:36.562Z,4.17
2018-07-17T07:55:39.151Z,4.10
2018-07-17T07:57:41.512Z,4.40
2018-07-17T07:59:44.747Z,4.00
2018-07-17T08:01:47.132Z,3.70
2018-07-17T08:03:49.471Z,5.40
2018-07-17T08:05:52.053Z,5.43
2018-07-17T08:07:54.346Z,4.10
2018-07-17T08:09:56.689Z,3.80
2018-07-17T08:11:59.084Z,4.00
2018-07-17T08:14:01.426Z,48.87
2018-07-17T08:16:03.912Z,18.07
2018-07-17T08:18:06.955Z,12.17
2018-07-17T08:20:09.872Z,6.83
2018-07-17T08:22:12.155Z,9.67
2018-07-17T08:24:14.476Z,8.47
2018-07-17T08:26:16.742Z,9.80
2018-07-17T08:28:19.743Z,8.33
2018-07-17T08:30:22.126Z,10.33
2018-07-17T08:32:24.538Z,5.50
2018-07-17T08:34:26.740Z,10.03
2018-07-17T08:36:29.079Z,11.73
2018-07-17T08:38:32.050Z,9.37
2018-07-17T08:40:34.264Z,12.30
2018-07-17T08:42:37.799Z,11.23
2018-07-17T08:44:40.062Z,9.07
2018-07-17T08:46:42.324Z,13.60
2018-07-17T08:48:44.544Z,9.20
2018-07-17T08:50:46.810Z,4.53
2018-07-17T08:52:49.060Z,8.30
2018-07-17T08:54:51.407Z,7.67
2018-07-17T08:56:53.635Z,6.20
2018-07-17T08:58:56.129Z,6.40
2018-07-17T09:00:58.497Z,4.47
2018-07-17T09:03:00.803Z,9.63
2018-07-17T09:05:04.065Z,5.97
2018-07-17T09:07:06.318Z,5.80
2018-07-17T09:09:09.000Z,3.73
2018-07-17T09:11:11.339Z,3.97
2018-07-17T09:13:13.624Z,7.60
2018-07-17T09:15:16.184Z,6.47
2018-07-17T09:17:18.492Z,6.50
2018-07-17T09:19:20.820Z,4.93
2018-07-17T09:21:23.171Z,5.77
2018-07-17T09:23:25.482Z,5.97
2018-07-17T09:25:27.824Z,9.87
2018-07-17T09:27:30.064Z,6.00
2018-07-17T09:29:32.391Z,4.70
2018-07-17T09:31:34.652Z,6.80
2018-07-17T09:33:36.941Z,5.03
2018-07-17T09:35:39.786Z,6.37
2018-07-17T09:37:42.152Z,8.00
2018-07-17T09:39:44.400Z,6.07
2018-07-17T09:41:46.683Z,5.97
2018-07-17T09:43:48.964Z,5.77
2018-07-17T09:45:51.394Z,5.43
2018-07-17T09:47:53.690Z,6.63
2018-07-17T09:49:57.587Z,5.80
2018-07-17T09:52:02.425Z,5.73
2018-07-17T09:54:04.686Z,6.50
2018-07-17T09:56:06.955Z,6.93
2018-07-17T09:58:09.292Z,6.97
2018-07-17T10:00:15.942Z,7.40
2018-07-17T10:02:24.513Z,6.40
2018-07-17T10:04:26.914Z,12.60
2018-07-17T10:06:29.181Z,6.93
2018-07-17T10:08:32.274Z,14.30
2018-07-17T10:10:35.118Z,8.60
2018-07-17T10:12:37.344Z,8.50
2018-07-17T10:14:40.430Z,6.80
2018-07-17T10:16:42.725Z,8.50
2018-07-17T10:18:45.067Z,7.37
2018-07-17T10:20:47.372Z,6.87
2018-07-17T10:22:49.650Z,17.97
2018-07-17T10:27:11.300Z,7.40
2018-07-17T10:29:13.852Z,6.70
2018-07-17T10:31:16.854Z,9.23
2018-07-17T10:33:19.241Z,9.33
2018-07-17T10:35:21.499Z,7.43
2018-07-17T10:37:23.760Z,6.47
2018-07-17T10:39:26.016Z,6.57
2018-07-17T10:41:28.646Z,7.87
2018-07-17T10:43:30.942Z,6.50
2018-07-17T10:45:33.454Z,15.33
2018-07-17T10:47:37.021Z,13.10
2018-07-17T10:49:39.448Z,13.53
2018-07-17T10:51:41.820Z,11.03
2018-07-17T10:53:44.104Z,11.63
2018-07-17T10:55:46.423Z,14.83
2018-07-17T10:57:48.653Z,11.37
2018-07-17T10:59:51.549Z,15.10
2018-07-17T11:01:53.847Z,16.10
2018-07-17T11:03:56.129Z,22.73
2018-07-17T11:05:58.373Z,10.57
2018-07-17T11:08:01.161Z,14.50
2018-07-17T11:10:03.570Z,10.47
2018-07-17T11:12:05.877Z,11.80
2018-07-17T11:14:08.254Z,16.47
2018-07-17T11:16:10.612Z,15.60
2018-07-17T11:18:12.918Z,10.93
2018-07-17T11:20:15.261Z,17.77
2018-07-17T11:22:17.498Z,12.00
2018-07-17T11:24:19.687Z,12.53
2018-07-17T11:26:21.887Z,13.47
2018-07-17T11:28:24.099Z,13.97
2018-07-17T11:30:26.319Z,13.40
2018-07-17T11:32:28.518Z,12.00
2018-07-17T11:34:30.728Z,15.17
2018-07-17T11:36:32.945Z,11.77
2018-07-17T11:38:35.136Z,22.53
2018-07-17T11:40:37.315Z,13.90
2018-07-17T11:42:39.693Z,14.43
2018-07-17T11:44:41.943Z,29.40
2018-07-17T11:46:45.848Z,21.93
2018-07-17T11:48:48.158Z,16.27
2018-07-17T11:50:50.495Z,16.00
2018-07-17T11:52:53.031Z,11.57
2018-07-17T11:54:55.544Z,13.33
2018-07-17T11:56:57.897Z,16.87
2018-07-17T11:59:00.175Z,13.10
2018-07-17T12:01:02.771Z,16.53
2018-07-17T12:03:05.106Z,14.50
2018-07-17T12:05:07.378Z,12.73
2018-07-17T12:07:10.478Z,14.70
2018-07-17T12:09:13.595Z,9.73
2018-07-17T12:11:15.903Z,11.77
2018-07-17T12:13:18.112Z,12.67
2018-07-17T12:15:20.509Z,8.27
2018-07-17T12:17:22.778Z,10.63
2018-07-17T12:19:25.105Z,13.87
2018-07-17T12:21:27.305Z,9.27
2018-07-17T12:23:29.619Z,8.17
2018-07-17T12:25:31.969Z,7.27
2018-07-17T12:27:34.252Z,8.40
2018-07-17T12:29:36.565Z,7.30
2018-07-17T12:31:38.823Z,8.07
2018-07-17T12:33:41.158Z,11.27
2018-07-17T12:35:43.539Z,7.43
2018-07-17T12:37:46.013Z,5.83
2018-07-17T12:39:48.411Z,7.60
2018-07-17T12:41:50.906Z,6.23
2018-07-17T12:43:53.332Z,5.67
2018-07-17T12:45:56.777Z,6.67
2018-07-17T12:47:59.708Z,14.53
2018-07-17T12:50:02.119Z,5.37
2018-07-17T12:52:04.419Z,9.37
2018-07-17T12:54:06.708Z,7.27
2018-07-17T12:56:09.203Z,4.50
2018-07-17T12:58:12.115Z,7.53
2018-07-17T13:00:14.491Z,5.13
2018-07-17T13:02:16.740Z,6.20
2018-07-17T13:04:19.029Z,5.23
2018-07-17T13:06:21.334Z,4.20
2018-07-17T13:08:24.055Z,9.27
2018-07-17T13:10:26.342Z,4.30
2018-07-17T13:12:28.607Z,4.30
2018-07-17T13:14:30.872Z,3.97
2018-07-17T13:16:33.413Z,5.90
2018-07-17T13:18:35.687Z,5.20
2018-07-17T13:20:37.983Z,4.07
2018-07-17T13:22:40.278Z,3.67
2018-07-17T13:24:42.820Z,4.07
2018-07-17T13:26:45.157Z,4.17
2018-07-17T13:28:47.388Z,8.30
2018-07-17T13:30:49.709Z,4.33
2018-07-17T13:32:52.082Z,6.27
2018-07-17T13:34:54.371Z,10.57
2018-07-17T13:36:56.721Z,10.00
2018-07-17T13:38:59.039Z,11.10
2018-07-17T13:41:01.434Z,8.93
2018-07-17T13:43:03.813Z,12.57
2018-07-17T13:45:06.132Z,8.40
2018-07-17T13:47:08.366Z,7.17
2018-07-17T13:49:10.729Z,5.57
2018-07-17T13:51:13.012Z,5.33
2018-07-17T13:53:15.413Z,5.17
2018-07-17T13:55:17.828Z,5.47
2018-07-17T13:57:20.122Z,3.57
2018-07-17T13:59:22.508Z,5.13
2018-07-17T14:01:24.854Z,5.27
2018-07-17T14:03:27.258Z,6.90
2018-07-17T14:05:29.631Z,8.53
2018-07-17T14:07:31.858Z,4.67
2018-07-17T14:09:34.225Z,3.53
2018-07-17T14:11:36.686Z,6.57
2018-07-17T14:13:39.564Z,11.70
2018-07-17T14:15:42.726Z,2.93
2018-07-17T14:17:45.555Z,6.67
2018-07-17T14:19:47.894Z,6.87
2018-07-17T14:21:50.306Z,7.30
2018-07-17T14:23:52.556Z,5.20
2018-07-17T14:25:54.914Z,3.17
2018-07-17T14:27:57.742Z,5.37
2018-07-17T14:30:00.112Z,4.00
2018-07-17T14:32:02.725Z,7.93
2018-07-17T14:34:05.134Z,6.93
2018-07-17T14:36:07.681Z,3.73
2018-07-17T14:38:10.671Z,9.37
2018-07-17T14:40:13.059Z,3.07
2018-07-17T14:42:16.259Z,3.43
2018-07-17T14:44:19.385Z,3.03
2018-07-17T14:46:22.104Z,2.90
2018-07-17T14:48:24.426Z,3.73
2018-07-17T14:50:26.782Z,3.30
2018-07-17T14:52:29.032Z,3.53
2018-07-17T14:54:31.332Z,7.27
2018-07-17T14:56:33.626Z,13.33
2018-07-17T14:58:36.211Z,10.47
2018-07-17T15:00:38.717Z,11.43
2018-07-17T15:02:41.066Z,9.43
2018-07-17T15:04:43.350Z,6.23
2018-07-17T15:06:45.726Z,11.70
2018-07-17T15:08:48.031Z,11.80
2018-07-17T15:10:50.308Z,4.53
2018-07-17T15:12:53.212Z,6.43
2018-07-17T15:14:55.762Z,6.40
2018-07-17T15:16:58.074Z,18.30
2018-07-17T15:19:00.486Z,15.37
2018-07-17T15:21:03.479Z,6.13
2018-07-17T15:23:06.149Z,10.50
2018-07-17T15:25:08.435Z,3.97
2018-07-17T15:27:10.764Z,7.90
2018-07-17T15:29:13.073Z,3.30
2018-07-17T15:31:15.401Z,3.10
2018-07-17T15:33:18.293Z,4.97
2018-07-17T15:35:20.651Z,3.17
2018-07-17T15:37:22.939Z,4.70
2018-07-17T15:39:25.278Z,7.70
2018-07-17T15:41:27.757Z,3.80
2018-07-17T15:43:30.117Z,7.20
2018-07-17T15:45:32.458Z,7.40
2018-07-17T15:47:34.881Z,3.40
2018-07-17T15:49:47.747Z,9.30
2018-07-17T15:52:02.517Z,6.43
2018-07-17T15:54:06.371Z,6.33
2018-07-17T15:56:09.054Z,4.30
2018-07-17T15:58:11.366Z,2.97
2018-07-17T16:00:13.627Z,3.20
2018-07-17T16:02:15.970Z,4.57
2018-07-17T16:04:18.378Z,2.83
2018-07-17T16:06:20.961Z,3.57
2018-07-17T16:08:23.346Z,3.70
2018-07-17T16:10:25.680Z,9.67
2018-07-17T16:12:27.909Z,12.73
2018-07-17T16:14:31.053Z,21.63
2018-07-17T16:16:33.258Z,8.83
2018-07-17T16:18:35.571Z,10.70
2018-07-17T16:20:37.969Z,12.00
2018-07-17T16:22:40.404Z,9.20
2018-07-17T16:24:43.137Z,14.27
2018-07-17T16:26:45.562Z,6.77
2018-07-17T16:28:48.018Z,7.50
2018-07-17T16:30:50.349Z,11.37
2018-07-17T16:32:53.088Z,7.17
2018-07-17T16:34:55.582Z,12.40
2018-07-17T16:36:58.274Z,5.93
2018-07-17T16:39:00.750Z,8.83
2018-07-17T16:41:03.119Z,4.93
2018-07-17T16:43:05.483Z,6.53
2018-07-17T16:45:07.818Z,8.73
2018-07-17T16:47:10.120Z,2.50
2018-07-17T16:49:12.462Z,3.27
2018-07-17T16:51:14.882Z,4.93
2018-07-17T16:53:17.248Z,3.37
2018-07-17T16:55:19.930Z,4.00
2018-07-17T16:57:23.155Z,4.13
2018-07-17T16:59:25.533Z,2.90
2018-07-17T17:01:28.016Z,6.13
2018-07-17T17:03:31.028Z,3.10
2018-07-17T17:05:33.615Z,2.60
2018-07-17T17:07:36.134Z,2.80
2018-07-17T17:09:38.438Z,2.67
2018-07-17T17:11:41.280Z,3.83
2018-07-17T17:13:43.799Z,2.80
2018-07-17T17:15:46.042Z,2.87
2018-07-17T17:17:48.493Z,3.07
2018-07-17T17:19:50.880Z,2.70
2018-07-17T17:21:53.523Z,2.63
2018-07-17T17:23:56.120Z,2.60
2018-07-17T17:25:58.706Z,2.83
2018-07-17T17:28:01.057Z,3.10
2018-07-17T17:30:03.371Z,2.67
2018-07-17T17:32:05.764Z,2.70
2018-07-17T17:34:08.210Z,3.00
2018-07-17T17:36:10.622Z,2.47
2018-07-17T17:38:13.260Z,5.20
2018-07-17T17:40:15.624Z,2.87
2018-07-17T17:42:18.132Z,2.80
2018-07-17T17:44:20.635Z,2.50
2018-07-17T17:46:23.136Z,2.47
2018-07-17T17:48:25.602Z,2.40
2018-07-17T17:50:28.501Z,2.83
2018-07-17T17:52:31.048Z,2.40
2018-07-17T17:54:33.402Z,2.43
2018-07-17T17:56:35.795Z,2.60
2018-07-17T17:58:38.857Z,2.57
2018-07-17T18:00:41.441Z,3.00
2018-07-17T18:02:45.304Z,2.60
2018-07-17T18:04:50.016Z,3.43
2018-07-17T18:06:55.083Z,2.50
2018-07-17T18:08:57.563Z,2.17
2018-07-17T18:11:00.104Z,2.60
2018-07-17T18:13:02.540Z,2.33
2018-07-17T18:15:05.289Z,2.20
2018-07-17T18:17:07.611Z,2.40
2018-07-17T18:19:09.922Z,2.67
2018-07-17T18:21:12.312Z,2.70
2018-07-17T18:23:14.704Z,2.60
2018-07-17T18:25:17.235Z,2.40
2018-07-17T18:27:19.633Z,2.10
2018-07-17T18:29:22.038Z,2.90
2018-07-17T18:31:24.435Z,2.63
2018-07-17T18:33:26.831Z,2.50
2018-07-17T18:35:29.295Z,2.50
2018-07-17T18:37:31.653Z,2.43
2018-07-17T18:39:33.993Z,2.40
2018-07-17T18:41:36.357Z,2.80
2018-07-17T18:43:38.644Z,2.20
2018-07-17T18:45:41.081Z,2.63
2018-07-17T18:47:43.409Z,7.90
2018-07-17T18:49:45.624Z,2.60
2018-07-17T18:51:47.943Z,5.43
2018-07-17T18:53:50.375Z,3.33
2018-07-17T18:55:52.627Z,4.37
2018-07-17T18:57:55.099Z,3.90
2018-07-17T18:59:57.418Z,3.13
2018-07-17T19:01:59.810Z,2.70
2018-07-17T19:04:02.198Z,2.50
2018-07-17T19:06:04.710Z,4.87
2018-07-17T19:08:07.101Z,5.20
2018-07-17T19:10:09.586Z,2.47
2018-07-17T19:12:12.115Z,2.73
2018-07-17T19:14:14.795Z,3.07
2018-07-17T19:16:18.044Z,2.97
2018-07-17T19:18:20.620Z,5.30
2018-07-17T19:20:23.057Z,2.80
2018-07-17T19:22:25.398Z,3.00
2018-07-17T19:24:28.453Z,2.80
2018-07-17T19:26:35.779Z,2.87
2018-07-17T19:28:39.058Z,2.70
2018-07-17T19:30:42.318Z,2.70
2018-07-17T19:32:44.733Z,2.93
2018-07-17T19:34:51.744Z,2.90
2018-07-17T19:36:54.252Z,2.70
2018-07-17T19:38:56.530Z,2.90
2018-07-17T19:40:58.996Z,2.83
2018-07-17T19:43:01.740Z,2.90
2018-07-17T19:45:04.144Z,3.20
2018-07-17T19:47:06.507Z,2.97
2018-07-17T19:49:08.884Z,2.90
2018-07-17T19:51:11.290Z,2.90
2018-07-17T19:53:14.138Z,2.70
2018-07-17T19:55:17.079Z,2.80
2018-07-17T19:57:20.203Z,2.67
2018-07-17T19:59:22.829Z,3.73
2018-07-17T20:01:25.354Z,2.70
2018-07-17T20:03:27.883Z,2.97
2018-07-17T20:05:30.638Z,2.93
2018-07-17T20:07:33.042Z,2.70
2018-07-17T20:09:35.611Z,2.80
2018-07-17T20:11:38.029Z,3.33
2018-07-17T20:13:40.684Z,3.03
2018-07-17T20:15:43.262Z,2.93
2018-07-17T20:17:45.803Z,3.33
2018-07-17T20:19:48.258Z,3.30
2018-07-17T20:21:50.623Z,3.03
2018-07-17T20:23:54.138Z,3.23
2018-07-17T20:25:56.581Z,3.40
2018-07-17T20:27:58.909Z,3.03
2018-07-17T20:30:01.336Z,4.47
2018-07-17T20:32:03.710Z,3.40
2018-07-17T20:34:06.260Z,3.07
2018-07-17T20:36:08.755Z,3.50
2018-07-17T20:38:11.297Z,3.20
2018-07-17T20:40:13.589Z,3.70
2018-07-17T20:42:15.901Z,3.10
2018-07-17T20:44:18.322Z,3.30
2018-07-17T20:46:21.555Z,3.30
2018-07-17T20:48:24.075Z,2.97
2018-07-17T20:50:26.491Z,3.00
2018-07-17T20:52:28.997Z,3.33
2018-07-17T20:54:31.403Z,3.40
2018-07-17T20:56:33.958Z,3.27
2018-07-17T20:58:36.408Z,3.30
2018-07-17T21:00:38.745Z,4.07
2018-07-17T21:02:41.075Z,3.37
2018-07-17T21:04:43.458Z,3.50
2018-07-17T21:06:45.923Z,3.00
2018-07-17T21:08:49.003Z,3.43
2018-07-17T21:10:51.557Z,3.77
2018-07-17T21:12:53.857Z,3.17
2018-07-17T21:14:56.097Z,3.60
2018-07-17T21:16:58.478Z,3.17
2018-07-17T21:19:01.365Z,3.50
2018-07-17T21:21:03.741Z,3.50
2018-07-17T21:23:06.128Z,4.17
2018-07-17T21:25:08.917Z,3.67
2018-07-17T21:27:11.926Z,3.50
2018-07-17T21:29:14.491Z,4.53
2018-07-17T21:31:16.792Z,5.13
2018-07-17T21:33:19.171Z,4.30
2018-07-17T21:35:21.751Z,3.60
2018-07-17T21:37:24.107Z,4.40
2018-07-17T21:39:26.489Z,3.97
2018-07-17T21:41:28.862Z,4.03
2018-07-17T21:43:34.291Z,4.00
2018-07-17T21:45:36.755Z,3.90
2018-07-17T21:47:39.238Z,3.90
2018-07-17T21:49:42.054Z,3.70
2018-07-17T21:51:44.618Z,4.10
2018-07-17T21:53:47.191Z,4.10
2018-07-17T21:55:49.705Z,4.93
2018-07-17T21:57:52.022Z,3.60
2018-07-17T21:59:54.341Z,3.90
2018-07-17T22:01:56.627Z,3.90
2018-07-17T22:03:58.926Z,3.60
2018-07-17T22:06:01.172Z,3.60
2018-07-17T22:08:03.524Z,4.03
2018-07-17T22:10:05.959Z,3.50
2018-07-17T22:12:08.301Z,3.57
2018-07-17T22:14:10.767Z,3.70
2018-07-17T22:16:13.121Z,4.13
2018-07-17T22:18:15.481Z,3.63
2018-07-17T22:20:17.950Z,3.63
2018-07-17T22:22:20.283Z,3.70
2018-07-17T22:24:22.614Z,3.90
2018-07-17T22:26:25.145Z,3.57
2018-07-17T22:28:27.519Z,3.93
2018-07-17T22:30:30.078Z,3.83
2018-07-17T22:32:33.097Z,3.60
2018-07-17T22:34:35.873Z,3.77
2018-07-17T22:36:38.160Z,3.80
2018-07-17T22:38:40.495Z,3.57
2018-07-17T22:40:42.937Z,3.50
2018-07-17T22:42:45.300Z,3.70
2018-07-17T22:44:47.749Z,4.10
2018-07-17T22:46:50.304Z,3.97
2018-07-17T22:48:52.751Z,3.70
2018-07-17T22:50:55.124Z,3.93
2018-07-17T22:52:57.548Z,3.70
2018-07-17T22:54:59.863Z,3.57
2018-07-17T22:57:02.171Z,3.27
2018-07-17T22:59:04.661Z,3.97
2018-07-17T23:01:07.426Z,3.63
2018-07-17T23:03:09.689Z,3.80
2018-07-17T23:05:12.036Z,3.67
2018-07-17T23:07:14.321Z,4.03
2018-07-17T23:09:16.665Z,3.73
2018-07-17T23:11:18.993Z,3.57
2018-07-17T23:13:21.378Z,3.80
2018-07-17T23:15:23.894Z,3.83
2018-07-17T23:17:26.202Z,3.47
2018-07-17T23:19:28.741Z,4.10
2018-07-17T23:21:31.059Z,3.90
2018-07-17T23:23:33.296Z,3.83
2018-07-17T23:25:35.777Z,3.70
2018-07-17T23:27:38.084Z,3.83
2018-07-17T23:29:40.350Z,4.03
2018-07-17T23:31:42.654Z,5.00
2018-07-17T23:33:45.426Z,3.77
2018-07-17T23:35:47.745Z,3.80
2018-07-17T23:37:50.675Z,3.37
2018-07-17T23:39:53.129Z,4.00
2018-07-17T23:41:55.442Z,3.53
2018-07-17T23:43:57.764Z,4.20
2018-07-17T23:46:00.119Z,4.20
2018-07-17T23:48:02.502Z,3.87
2018-07-17T23:50:04.987Z,4.23
2018-07-17T23:52:07.897Z,4.50
2018-07-17T23:54:10.211Z,3.87
2018-07-17T23:56:12.676Z,3.60
2018-07-17T23:58:15.114Z,4.03
